sensor_id;sensor_type;location;lat;lon;timestamp;P1;durP1;ratioP1;P2;durP2;ratioP2
18596;SDS011;9428;50.950;6.912;2023-07-24T00:01:50;3.58;;;2.65;;
18596;SDS011;9428;50.950;6.912;2023-07-24T00:04:37;6.53;;;2.60;;
18596;SDS011;9428;50.950;6.912;2023-07-24T00:07:25;5.50;;;3.00;;
18596;SDS011;9428;50.950;6.912;2023-07-24T00:10:12;7.30;;;3.83;;
18596;SDS011;9428;50.950;6.912;2023-07-24T00:12:59;4.32;;;3.05;;
18596;SDS011;9428;50.950;6.912;2023-07-24T00:15:48;4.50;;;3.05;;
18596;SDS011;9428;50.950;6.912;2023-07-24T00:18:35;4.82;;;3.15;;
18596;SDS011;9428;50.950;6.912;2023-07-24T00:21:23;5.30;;;3.00;;
18596;SDS011;9428;50.950;6.912;2023-07-24T00:24:10;3.65;;;2.97;;
18596;SDS011;9428;50.950;6.912;2023-07-24T00:26:57;5.18;;;3.13;;
18596;SDS011;9428;50.950;6.912;2023-07-24T00:29:45;3.35;;;2.78;;
18596;SDS011;9428;50.950;6.912;2023-07-24T00:32:33;4.32;;;2.60;;
18596;SDS011;9428;50.950;6.912;2023-07-24T00:35:20;6.68;;;3.15;;
18596;SDS011;9428;50.950;6.912;2023-07-24T00:38:08;4.80;;;2.80;;
18596;SDS011;9428;50.950;6.912;2023-07-24T00:40:55;3.42;;;2.72;;
18596;SDS011;9428;50.950;6.912;2023-07-24T00:43:42;4.10;;;2.83;;
18596;SDS011;9428;50.950;6.912;2023-07-24T00:46:30;5.00;;;3.03;;
18596;SDS011;9428;50.950;6.912;2023-07-24T00:49:19;4.07;;;3.22;;
18596;SDS011;9428;50.950;6.912;2023-07-24T00:52:07;2.58;;;2.33;;
18596;SDS011;9428;50.950;6.912;2023-07-24T00:54:54;3.67;;;2.72;;
18596;SDS011;9428;50.950;6.912;2023-07-24T00:57:42;3.53;;;2.97;;
18596;SDS011;9428;50.950;6.912;2023-07-24T01:00:30;5.85;;;2.85;;
18596;SDS011;9428;50.950;6.912;2023-07-24T01:03:18;3.88;;;2.70;;
18596;SDS011;9428;50.950;6.912;2023-07-24T01:06:07;4.40;;;2.67;;
18596;SDS011;9428;50.950;6.912;2023-07-24T01:08:54;4.10;;;3.08;;
18596;SDS011;9428;50.950;6.912;2023-07-24T01:11:43;4.30;;;3.03;;
18596;SDS011;9428;50.950;6.912;2023-07-24T01:14:36;6.50;;;2.95;;
18596;SDS011;9428;50.950;6.912;2023-07-24T01:17:29;3.58;;;2.88;;
18596;SDS011;9428;50.950;6.912;2023-07-24T01:20:19;6.45;;;2.60;;
18596;SDS011;9428;50.950;6.912;2023-07-24T01:23:22;3.72;;;2.95;;
18596;SDS011;9428;50.950;6.912;2023-07-24T01:26:19;7.50;;;3.17;;
18596;SDS011;9428;50.950;6.912;2023-07-24T01:29:09;3.53;;;2.67;;
18596;SDS011;9428;50.950;6.912;2023-07-24T01:31:56;5.25;;;3.13;;
18596;SDS011;9428;50.950;6.912;2023-07-24T01:34:43;3.85;;;3.03;;
18596;SDS011;9428;50.950;6.912;2023-07-24T01:37:31;4.95;;;3.03;;
18596;SDS011;9428;50.950;6.912;2023-07-24T01:40:20;5.43;;;3.20;;
18596;SDS011;9428;50.950;6.912;2023-07-24T01:43:10;3.58;;;3.10;;
18596;SDS011;9428;50.950;6.912;2023-07-24T01:45:57;4.35;;;3.00;;
18596;SDS011;9428;50.950;6.912;2023-07-24T01:48:45;6.85;;;3.38;;
18596;SDS011;9428;50.950;6.912;2023-07-24T01:51:32;4.32;;;2.85;;
18596;SDS011;9428;50.950;6.912;2023-07-24T01:54:19;4.82;;;3.03;;
18596;SDS011;9428;50.950;6.912;2023-07-24T01:57:07;4.43;;;3.08;;
18596;SDS011;9428;50.950;6.912;2023-07-24T01:59:55;4.30;;;3.20;;
18596;SDS011;9428;50.950;6.912;2023-07-24T02:02:43;5.10;;;3.47;;
18596;SDS011;9428;50.950;6.912;2023-07-24T02:05:30;5.18;;;3.30;;
18596;SDS011;9428;50.950;6.912;2023-07-24T02:08:17;5.38;;;3.88;;
18596;SDS011;9428;50.950;6.912;2023-07-24T02:11:05;7.95;;;3.20;;
18596;SDS011;9428;50.950;6.912;2023-07-24T02:13:52;8.57;;;4.10;;
18596;SDS011;9428;50.950;6.912;2023-07-24T02:16:41;4.47;;;3.33;;
18596;SDS011;9428;50.950;6.912;2023-07-24T02:19:28;3.95;;;2.78;;
18596;SDS011;9428;50.950;6.912;2023-07-24T02:22:15;5.22;;;2.88;;
18596;SDS011;9428;50.950;6.912;2023-07-24T02:25:03;7.13;;;2.92;;
18596;SDS011;9428;50.950;6.912;2023-07-24T02:27:50;5.93;;;3.28;;
18596;SDS011;9428;50.950;6.912;2023-07-24T02:30:38;4.22;;;3.08;;
18596;SDS011;9428;50.950;6.912;2023-07-24T02:33:27;6.03;;;3.47;;
18596;SDS011;9428;50.950;6.912;2023-07-24T02:36:14;5.55;;;3.60;;
18596;SDS011;9428;50.950;6.912;2023-07-24T02:39:02;5.82;;;3.78;;
18596;SDS011;9428;50.950;6.912;2023-07-24T02:41:49;6.15;;;3.30;;
18596;SDS011;9428;50.950;6.912;2023-07-24T02:44:36;4.85;;;3.30;;
18596;SDS011;9428;50.950;6.912;2023-07-24T02:47:23;5.90;;;3.75;;
18596;SDS011;9428;50.950;6.912;2023-07-24T02:50:12;5.38;;;3.42;;
18596;SDS011;9428;50.950;6.912;2023-07-24T02:52:59;5.68;;;3.42;;
18596;SDS011;9428;50.950;6.912;2023-07-24T02:55:47;5.32;;;3.47;;
18596;SDS011;9428;50.950;6.912;2023-07-24T02:58:34;5.10;;;3.60;;
18596;SDS011;9428;50.950;6.912;2023-07-24T03:01:21;6.40;;;3.42;;
18596;SDS011;9428;50.950;6.912;2023-07-24T03:04:08;9.63;;;3.40;;
18596;SDS011;9428;50.950;6.912;2023-07-24T03:06:57;5.63;;;3.75;;
18596;SDS011;9428;50.950;6.912;2023-07-24T03:09:44;6.78;;;3.35;;
18596;SDS011;9428;50.950;6.912;2023-07-24T03:12:32;5.07;;;3.38;;
18596;SDS011;9428;50.950;6.912;2023-07-24T03:15:19;7.25;;;3.10;;
18596;SDS011;9428;50.950;6.912;2023-07-24T03:18:07;5.68;;;3.65;;
18596;SDS011;9428;50.950;6.912;2023-07-24T03:20:54;5.82;;;3.42;;
18596;SDS011;9428;50.950;6.912;2023-07-24T03:23:45;6.70;;;3.92;;
18596;SDS011;9428;50.950;6.912;2023-07-24T03:26:32;5.05;;;3.47;;
18596;SDS011;9428;50.950;6.912;2023-07-24T03:29:20;5.05;;;3.45;;
18596;SDS011;9428;50.950;6.912;2023-07-24T03:32:07;7.63;;;3.13;;
18596;SDS011;9428;50.950;6.912;2023-07-24T03:34:54;4.90;;;3.15;;
18596;SDS011;9428;50.950;6.912;2023-07-24T03:37:41;5.20;;;3.30;;
18596;SDS011;9428;50.950;6.912;2023-07-24T03:40:30;8.30;;;3.35;;
18596;SDS011;9428;50.950;6.912;2023-07-24T03:43:18;6.63;;;3.00;;
18596;SDS011;9428;50.950;6.912;2023-07-24T03:46:05;7.65;;;3.78;;
18596;SDS011;9428;50.950;6.912;2023-07-24T03:48:52;3.47;;;3.05;;
18596;SDS011;9428;50.950;6.912;2023-07-24T03:51:39;5.40;;;3.55;;
18596;SDS011;9428;50.950;6.912;2023-07-24T03:54:26;4.72;;;3.55;;
18596;SDS011;9428;50.950;6.912;2023-07-24T03:57:15;4.32;;;3.28;;
18596;SDS011;9428;50.950;6.912;2023-07-24T04:00:03;5.43;;;3.42;;
18596;SDS011;9428;50.950;6.912;2023-07-24T04:02:51;6.05;;;3.40;;
18596;SDS011;9428;50.950;6.912;2023-07-24T04:05:38;7.68;;;3.78;;
18596;SDS011;9428;50.950;6.912;2023-07-24T04:08:25;7.43;;;3.58;;
18596;SDS011;9428;50.950;6.912;2023-07-24T04:11:12;4.93;;;3.40;;
18596;SDS011;9428;50.950;6.912;2023-07-24T04:14:01;4.55;;;3.53;;
18596;SDS011;9428;50.950;6.912;2023-07-24T04:16:48;6.00;;;3.42;;
18596;SDS011;9428;50.950;6.912;2023-07-24T04:19:35;6.35;;;3.78;;
18596;SDS011;9428;50.950;6.912;2023-07-24T04:22:23;4.90;;;3.45;;
18596;SDS011;9428;50.950;6.912;2023-07-24T04:25:10;5.82;;;3.67;;
18596;SDS011;9428;50.950;6.912;2023-07-24T04:27:57;7.07;;;3.53;;
18596;SDS011;9428;50.950;6.912;2023-07-24T04:30:46;4.93;;;3.25;;
18596;SDS011;9428;50.950;6.912;2023-07-24T04:33:33;6.53;;;4.00;;
18596;SDS011;9428;50.950;6.912;2023-07-24T04:36:20;4.03;;;3.63;;
18596;SDS011;9428;50.950;6.912;2023-07-24T04:39:08;4.13;;;3.25;;
18596;SDS011;9428;50.950;6.912;2023-07-24T04:41:55;4.65;;;3.60;;
18596;SDS011;9428;50.950;6.912;2023-07-24T04:44:42;5.32;;;3.40;;
18596;SDS011;9428;50.950;6.912;2023-07-24T04:47:31;6.38;;;3.45;;
18596;SDS011;9428;50.950;6.912;2023-07-24T04:50:18;4.78;;;3.60;;
18596;SDS011;9428;50.950;6.912;2023-07-24T04:53:05;4.53;;;3.58;;
18596;SDS011;9428;50.950;6.912;2023-07-24T04:55:52;4.75;;;3.67;;
18596;SDS011;9428;50.950;6.912;2023-07-24T04:58:40;5.38;;;3.88;;
18596;SDS011;9428;50.950;6.912;2023-07-24T05:01:27;4.88;;;3.92;;
18596;SDS011;9428;50.950;6.912;2023-07-24T05:04:16;4.53;;;3.22;;
18596;SDS011;9428;50.950;6.912;2023-07-24T05:07:03;5.40;;;4.13;;
18596;SDS011;9428;50.950;6.912;2023-07-24T05:09:50;3.97;;;3.30;;
18596;SDS011;9428;50.950;6.912;2023-07-24T05:12:37;5.03;;;3.42;;
18596;SDS011;9428;50.950;6.912;2023-07-24T05:15:27;6.60;;;3.45;;
18596;SDS011;9428;50.950;6.912;2023-07-24T05:18:14;4.13;;;3.58;;
18596;SDS011;9428;50.950;6.912;2023-07-24T05:21:03;7.70;;;4.22;;
18596;SDS011;9428;50.950;6.912;2023-07-24T05:23:50;6.75;;;4.13;;
18596;SDS011;9428;50.950;6.912;2023-07-24T05:26:38;4.95;;;3.97;;
18596;SDS011;9428;50.950;6.912;2023-07-24T05:29:25;5.18;;;3.75;;
18596;SDS011;9428;50.950;6.912;2023-07-24T05:32:12;6.63;;;4.10;;
18596;SDS011;9428;50.950;6.912;2023-07-24T05:34:59;5.60;;;3.47;;
18596;SDS011;9428;50.950;6.912;2023-07-24T05:37:48;8.57;;;3.88;;
18596;SDS011;9428;50.950;6.912;2023-07-24T05:40:35;6.95;;;4.10;;
18596;SDS011;9428;50.950;6.912;2023-07-24T05:43:23;10.75;;;4.55;;
18596;SDS011;9428;50.950;6.912;2023-07-24T05:46:10;8.40;;;4.25;;
18596;SDS011;9428;50.950;6.912;2023-07-24T05:48:57;6.75;;;4.38;;
18596;SDS011;9428;50.950;6.912;2023-07-24T05:51:46;7.97;;;4.53;;
18596;SDS011;9428;50.950;6.912;2023-07-24T05:54:34;8.45;;;4.20;;
18596;SDS011;9428;50.950;6.912;2023-07-24T05:57:21;5.53;;;4.07;;
18596;SDS011;9428;50.950;6.912;2023-07-24T06:00:09;6.47;;;4.28;;
18596;SDS011;9428;50.950;6.912;2023-07-24T06:02:57;8.32;;;4.80;;
18596;SDS011;9428;50.950;6.912;2023-07-24T06:05:44;7.90;;;4.65;;
18596;SDS011;9428;50.950;6.912;2023-07-24T06:08:31;8.00;;;3.92;;
18596;SDS011;9428;50.950;6.912;2023-07-24T06:11:20;6.22;;;4.05;;
18596;SDS011;9428;50.950;6.912;2023-07-24T06:14:08;8.65;;;4.53;;
18596;SDS011;9428;50.950;6.912;2023-07-24T06:16:55;6.72;;;4.20;;
18596;SDS011;9428;50.950;6.912;2023-07-24T06:19:42;11.80;;;3.95;;
18596;SDS011;9428;50.950;6.912;2023-07-24T06:22:30;5.53;;;3.60;;
18596;SDS011;9428;50.950;6.912;2023-07-24T06:25:17;6.70;;;4.68;;
18596;SDS011;9428;50.950;6.912;2023-07-24T06:28:06;8.43;;;3.70;;
18596;SDS011;9428;50.950;6.912;2023-07-24T06:30:53;8.90;;;3.95;;
18596;SDS011;9428;50.950;6.912;2023-07-24T06:33:40;6.63;;;3.90;;
18596;SDS011;9428;50.950;6.912;2023-07-24T06:36:27;6.75;;;3.60;;
18596;SDS011;9428;50.950;6.912;2023-07-24T06:39:15;5.00;;;3.58;;
18596;SDS011;9428;50.950;6.912;2023-07-24T06:42:02;6.03;;;3.83;;
18596;SDS011;9428;50.950;6.912;2023-07-24T06:44:51;5.38;;;3.28;;
18596;SDS011;9428;50.950;6.912;2023-07-24T06:47:39;6.65;;;3.55;;
18596;SDS011;9428;50.950;6.912;2023-07-24T06:50:26;8.25;;;3.40;;
18596;SDS011;9428;50.950;6.912;2023-07-24T06:53:13;5.47;;;3.53;;
18596;SDS011;9428;50.950;6.912;2023-07-24T06:56:00;5.15;;;3.70;;
18596;SDS011;9428;50.950;6.912;2023-07-24T06:58:48;5.47;;;2.90;;
18596;SDS011;9428;50.950;6.912;2023-07-24T07:01:36;6.13;;;3.17;;
18596;SDS011;9428;50.950;6.912;2023-07-24T07:04:23;4.30;;;3.03;;
18596;SDS011;9428;50.950;6.912;2023-07-24T07:07:11;4.95;;;2.97;;
18596;SDS011;9428;50.950;6.912;2023-07-24T07:09:58;6.22;;;3.38;;
18596;SDS011;9428;50.950;6.912;2023-07-24T07:12:45;4.95;;;2.95;;
18596;SDS011;9428;50.950;6.912;2023-07-24T07:15:33;5.22;;;3.08;;
18596;SDS011;9428;50.950;6.912;2023-07-24T07:18:23;4.15;;;2.55;;
18596;SDS011;9428;50.950;6.912;2023-07-24T07:21:10;3.88;;;2.80;;
18596;SDS011;9428;50.950;6.912;2023-07-24T07:23:58;5.53;;;2.80;;
18596;SDS011;9428;50.950;6.912;2023-07-24T07:26:45;5.05;;;3.15;;
18596;SDS011;9428;50.950;6.912;2023-07-24T07:29:32;4.45;;;3.10;;
18596;SDS011;9428;50.950;6.912;2023-07-24T07:32:19;4.50;;;2.72;;
18596;SDS011;9428;50.950;6.912;2023-07-24T07:35:08;4.55;;;3.00;;
18596;SDS011;9428;50.950;6.912;2023-07-24T07:37:55;4.80;;;2.80;;
18596;SDS011;9428;50.950;6.912;2023-07-24T07:40:43;3.95;;;2.63;;
18596;SDS011;9428;50.950;6.912;2023-07-24T07:43:30;6.47;;;2.50;;
18596;SDS011;9428;50.950;6.912;2023-07-24T07:46:17;4.25;;;2.58;;
18596;SDS011;9428;50.950;6.912;2023-07-24T07:49:04;3.97;;;2.88;;
18596;SDS011;9428;50.950;6.912;2023-07-24T07:51:53;3.90;;;3.00;;
18596;SDS011;9428;50.950;6.912;2023-07-24T07:54:40;3.75;;;3.10;;
18596;SDS011;9428;50.950;6.912;2023-07-24T07:57:31;3.03;;;2.72;;
18596;SDS011;9428;50.950;6.912;2023-07-24T08:00:20;5.85;;;3.22;;
18596;SDS011;9428;50.950;6.912;2023-07-24T08:03:08;4.90;;;3.42;;
18596;SDS011;9428;50.950;6.912;2023-07-24T08:05:56;6.30;;;3.00;;
18596;SDS011;9428;50.950;6.912;2023-07-24T08:08:45;7.35;;;3.22;;
18596;SDS011;9428;50.950;6.912;2023-07-24T08:11:32;4.88;;;3.05;;
18596;SDS011;9428;50.950;6.912;2023-07-24T08:14:19;5.30;;;3.28;;
18596;SDS011;9428;50.950;6.912;2023-07-24T08:17:07;5.45;;;2.95;;
18596;SDS011;9428;50.950;6.912;2023-07-24T08:19:54;5.68;;;3.35;;
18596;SDS011;9428;50.950;6.912;2023-07-24T08:22:41;5.63;;;3.40;;
18596;SDS011;9428;50.950;6.912;2023-07-24T08:25:30;7.28;;;3.30;;
18596;SDS011;9428;50.950;6.912;2023-07-24T08:28:18;6.15;;;3.22;;
18596;SDS011;9428;50.950;6.912;2023-07-24T08:31:05;3.67;;;3.10;;
18596;SDS011;9428;50.950;6.912;2023-07-24T08:33:52;4.95;;;3.00;;
18596;SDS011;9428;50.950;6.912;2023-07-24T08:36:40;5.72;;;3.08;;
18596;SDS011;9428;50.950;6.912;2023-07-24T08:39:27;3.67;;;2.75;;
18596;SDS011;9428;50.950;6.912;2023-07-24T08:42:16;4.25;;;2.90;;
18596;SDS011;9428;50.950;6.912;2023-07-24T08:45:07;3.42;;;2.70;;
18596;SDS011;9428;50.950;6.912;2023-07-24T08:47:58;4.93;;;3.10;;
18596;SDS011;9428;50.950;6.912;2023-07-24T08:50:46;6.80;;;3.33;;
18596;SDS011;9428;50.950;6.912;2023-07-24T08:53:36;4.60;;;3.10;;
18596;SDS011;9428;50.950;6.912;2023-07-24T08:56:24;4.10;;;2.70;;
18596;SDS011;9428;50.950;6.912;2023-07-24T08:59:13;4.88;;;2.72;;
18596;SDS011;9428;50.950;6.912;2023-07-24T09:02:00;6.28;;;3.33;;
18596;SDS011;9428;50.950;6.912;2023-07-24T09:04:48;4.18;;;3.08;;
18596;SDS011;9428;50.950;6.912;2023-07-24T09:07:35;4.63;;;2.90;;
18596;SDS011;9428;50.950;6.912;2023-07-24T09:10:24;4.63;;;2.95;;
18596;SDS011;9428;50.950;6.912;2023-07-24T09:13:12;5.22;;;2.80;;
18596;SDS011;9428;50.950;6.912;2023-07-24T09:16:00;6.45;;;3.05;;
18596;SDS011;9428;50.950;6.912;2023-07-24T09:18:48;5.38;;;3.13;;
18596;SDS011;9428;50.950;6.912;2023-07-24T09:21:37;5.43;;;2.72;;
18596;SDS011;9428;50.950;6.912;2023-07-24T09:24:24;4.72;;;2.53;;
18596;SDS011;9428;50.950;6.912;2023-07-24T09:27:11;4.45;;;2.58;;
18596;SDS011;9428;50.950;6.912;2023-07-24T09:29:58;3.38;;;2.50;;
18596;SDS011;9428;50.950;6.912;2023-07-24T09:32:52;4.72;;;2.83;;
18596;SDS011;9428;50.950;6.912;2023-07-24T09:35:40;3.53;;;2.50;;
18596;SDS011;9428;50.950;6.912;2023-07-24T09:38:27;3.80;;;2.97;;
18596;SDS011;9428;50.950;6.912;2023-07-24T09:41:14;2.95;;;2.30;;
18596;SDS011;9428;50.950;6.912;2023-07-24T09:44:02;5.22;;;2.25;;
18596;SDS011;9428;50.950;6.912;2023-07-24T09:46:49;4.07;;;2.53;;
18596;SDS011;9428;50.950;6.912;2023-07-24T09:49:38;4.68;;;2.50;;
18596;SDS011;9428;50.950;6.912;2023-07-24T09:52:27;3.42;;;2.30;;
18596;SDS011;9428;50.950;6.912;2023-07-24T09:55:15;4.03;;;2.40;;
18596;SDS011;9428;50.950;6.912;2023-07-24T09:58:08;4.00;;;2.75;;
18596;SDS011;9428;50.950;6.912;2023-07-24T10:00:57;3.42;;;2.50;;
18596;SDS011;9428;50.950;6.912;2023-07-24T10:03:46;4.32;;;2.15;;
18596;SDS011;9428;50.950;6.912;2023-07-24T10:06:35;3.53;;;2.33;;
18596;SDS011;9428;50.950;6.912;2023-07-24T10:09:24;4.05;;;2.55;;
18596;SDS011;9428;50.950;6.912;2023-07-24T10:12:11;2.85;;;2.35;;
18596;SDS011;9428;50.950;6.912;2023-07-24T10:14:59;3.15;;;2.80;;
18596;SDS011;9428;50.950;6.912;2023-07-24T10:17:47;4.38;;;3.25;;
18596;SDS011;9428;50.950;6.912;2023-07-24T10:20:35;3.80;;;2.65;;
18596;SDS011;9428;50.950;6.912;2023-07-24T10:23:26;3.72;;;2.70;;
18596;SDS011;9428;50.950;6.912;2023-07-24T10:26:14;2.90;;;2.28;;
18596;SDS011;9428;50.950;6.912;2023-07-24T10:29:02;3.97;;;2.47;;
18596;SDS011;9428;50.950;6.912;2023-07-24T10:31:52;2.65;;;2.13;;
18596;SDS011;9428;50.950;6.912;2023-07-24T10:34:40;3.35;;;2.50;;
18596;SDS011;9428;50.950;6.912;2023-07-24T10:37:31;4.78;;;2.33;;
18596;SDS011;9428;50.950;6.912;2023-07-24T10:40:21;3.40;;;2.55;;
18596;SDS011;9428;50.950;6.912;2023-07-24T10:43:09;5.38;;;2.88;;
18596;SDS011;9428;50.950;6.912;2023-07-24T10:45:57;3.05;;;2.45;;
18596;SDS011;9428;50.950;6.912;2023-07-24T10:48:45;3.70;;;2.30;;
18596;SDS011;9428;50.950;6.912;2023-07-24T10:51:34;5.72;;;2.85;;
18596;SDS011;9428;50.950;6.912;2023-07-24T10:54:22;3.63;;;2.50;;
18596;SDS011;9428;50.950;6.912;2023-07-24T10:57:12;3.42;;;2.47;;
18596;SDS011;9428;50.950;6.912;2023-07-24T10:59:59;6.47;;;2.42;;
18596;SDS011;9428;50.950;6.912;2023-07-24T11:02:47;3.70;;;2.60;;
18596;SDS011;9428;50.950;6.912;2023-07-24T11:05:34;7.40;;;2.90;;
18596;SDS011;9428;50.950;6.912;2023-07-24T11:08:21;4.03;;;2.58;;
18596;SDS011;9428;50.950;6.912;2023-07-24T11:11:08;4.30;;;2.92;;
18596;SDS011;9428;50.950;6.912;2023-07-24T11:13:59;3.50;;;2.60;;
18596;SDS011;9428;50.950;6.912;2023-07-24T11:16:48;4.63;;;2.92;;
18596;SDS011;9428;50.950;6.912;2023-07-24T11:19:35;3.47;;;2.58;;
18596;SDS011;9428;50.950;6.912;2023-07-24T11:22:22;3.42;;;2.70;;
18596;SDS011;9428;50.950;6.912;2023-07-24T11:25:10;3.90;;;2.60;;
18596;SDS011;9428;50.950;6.912;2023-07-24T11:27:58;4.68;;;3.03;;
18596;SDS011;9428;50.950;6.912;2023-07-24T11:30:46;4.13;;;2.83;;
18596;SDS011;9428;50.950;6.912;2023-07-24T11:33:34;3.92;;;2.80;;
18596;SDS011;9428;50.950;6.912;2023-07-24T11:36:21;3.83;;;2.72;;
18596;SDS011;9428;50.950;6.912;2023-07-24T11:39:09;3.38;;;2.58;;
18596;SDS011;9428;50.950;6.912;2023-07-24T11:41:58;3.22;;;2.80;;
18596;SDS011;9428;50.950;6.912;2023-07-24T11:44:47;6.95;;;3.63;;
18596;SDS011;9428;50.950;6.912;2023-07-24T11:47:42;11.80;;;4.32;;
18596;SDS011;9428;50.950;6.912;2023-07-24T11:50:40;5.10;;;2.50;;
18596;SDS011;9428;50.950;6.912;2023-07-24T11:53:30;3.95;;;1.83;;
18596;SDS011;9428;50.950;6.912;2023-07-24T11:56:19;3.42;;;2.08;;
18596;SDS011;9428;50.950;6.912;2023-07-24T11:59:10;5.53;;;2.60;;
18596;SDS011;9428;50.950;6.912;2023-07-24T12:01:58;5.63;;;2.67;;
18596;SDS011;9428;50.950;6.912;2023-07-24T12:04:47;7.57;;;2.00;;
18596;SDS011;9428;50.950;6.912;2023-07-24T12:07:39;3.10;;;1.75;;
18596;SDS011;9428;50.950;6.912;2023-07-24T12:10:31;2.55;;;1.50;;
18596;SDS011;9428;50.950;6.912;2023-07-24T12:13:21;2.95;;;1.38;;
18596;SDS011;9428;50.950;6.912;2023-07-24T12:16:09;5.00;;;1.70;;
18596;SDS011;9428;50.950;6.912;2023-07-24T12:18:56;1.90;;;1.63;;
18596;SDS011;9428;50.950;6.912;2023-07-24T12:21:44;3.80;;;2.05;;
18596;SDS011;9428;50.950;6.912;2023-07-24T12:24:32;6.43;;;2.85;;
18596;SDS011;9428;50.950;6.912;2023-07-24T12:27:19;6.50;;;2.10;;
18596;SDS011;9428;50.950;6.912;2023-07-24T12:30:06;4.47;;;2.10;;
18596;SDS011;9428;50.950;6.912;2023-07-24T12:32:54;3.42;;;2.08;;
18596;SDS011;9428;50.950;6.912;2023-07-24T12:35:41;3.70;;;2.00;;
18596;SDS011;9428;50.950;6.912;2023-07-24T12:38:30;3.25;;;2.40;;
18596;SDS011;9428;50.950;6.912;2023-07-24T12:41:17;5.00;;;2.10;;
18596;SDS011;9428;50.950;6.912;2023-07-24T12:44:04;3.58;;;2.10;;
18596;SDS011;9428;50.950;6.912;2023-07-24T12:46:52;6.57;;;2.00;;
18596;SDS011;9428;50.950;6.912;2023-07-24T12:49:39;4.95;;;2.42;;
18596;SDS011;9428;50.950;6.912;2023-07-24T12:52:26;2.25;;;2.00;;
18596;SDS011;9428;50.950;6.912;2023-07-24T12:55:16;4.30;;;2.55;;
18596;SDS011;9428;50.950;6.912;2023-07-24T12:58:04;3.42;;;2.20;;
18596;SDS011;9428;50.950;6.912;2023-07-24T13:00:51;4.35;;;2.10;;
18596;SDS011;9428;50.950;6.912;2023-07-24T13:03:38;2.67;;;2.22;;
18596;SDS011;9428;50.950;6.912;2023-07-24T13:06:25;3.58;;;2.20;;
18596;SDS011;9428;50.950;6.912;2023-07-24T13:09:12;4.38;;;2.10;;
18596;SDS011;9428;50.950;6.912;2023-07-24T13:12:01;5.90;;;2.83;;
18596;SDS011;9428;50.950;6.912;2023-07-24T13:14:48;4.10;;;2.03;;
18596;SDS011;9428;50.950;6.912;2023-07-24T13:17:35;3.60;;;1.92;;
18596;SDS011;9428;50.950;6.912;2023-07-24T13:20:24;3.47;;;2.38;;
18596;SDS011;9428;50.950;6.912;2023-07-24T13:23:11;5.63;;;2.13;;
18596;SDS011;9428;50.950;6.912;2023-07-24T13:25:58;2.83;;;1.92;;
18596;SDS011;9428;50.950;6.912;2023-07-24T13:28:47;2.95;;;1.95;;
18596;SDS011;9428;50.950;6.912;2023-07-24T13:31:34;5.25;;;2.08;;
18596;SDS011;9428;50.950;6.912;2023-07-24T13:34:23;3.63;;;2.00;;
18596;SDS011;9428;50.950;6.912;2023-07-24T13:37:10;2.38;;;1.75;;
18596;SDS011;9428;50.950;6.912;2023-07-24T13:39:58;4.93;;;2.20;;
18596;SDS011;9428;50.950;6.912;2023-07-24T13:42:45;4.13;;;2.42;;
18596;SDS011;9428;50.950;6.912;2023-07-24T13:45:34;5.00;;;2.72;;
18596;SDS011;9428;50.950;6.912;2023-07-24T13:48:21;3.33;;;2.15;;
18596;SDS011;9428;50.950;6.912;2023-07-24T13:51:08;3.13;;;1.70;;
18596;SDS011;9428;50.950;6.912;2023-07-24T13:53:56;3.33;;;1.48;;
18596;SDS011;9428;50.950;6.912;2023-07-24T13:56:44;3.38;;;1.42;;
18596;SDS011;9428;50.950;6.912;2023-07-24T13:59:32;2.35;;;1.60;;
18596;SDS011;9428;50.950;6.912;2023-07-24T14:02:20;2.28;;;1.58;;
18596;SDS011;9428;50.950;6.912;2023-07-24T14:05:08;1.80;;;1.60;;
18596;SDS011;9428;50.950;6.912;2023-07-24T14:07:55;2.90;;;1.70;;
18596;SDS011;9428;50.950;6.912;2023-07-24T14:10:42;2.17;;;1.60;;
18596;SDS011;9428;50.950;6.912;2023-07-24T14:13:30;2.20;;;1.67;;
18596;SDS011;9428;50.950;6.912;2023-07-24T14:16:17;2.35;;;2.03;;
18596;SDS011;9428;50.950;6.912;2023-07-24T14:19:05;3.72;;;1.90;;
18596;SDS011;9428;50.950;6.912;2023-07-24T14:21:53;2.63;;;1.85;;
18596;SDS011;9428;50.950;6.912;2023-07-24T14:24:40;1.65;;;1.35;;
18596;SDS011;9428;50.950;6.912;2023-07-24T14:27:27;4.38;;;1.60;;
18596;SDS011;9428;50.950;6.912;2023-07-24T14:30:14;1.88;;;1.15;;
18596;SDS011;9428;50.950;6.912;2023-07-24T14:33:01;2.00;;;1.20;;
18596;SDS011;9428;50.950;6.912;2023-07-24T14:35:50;2.33;;;1.30;;
18596;SDS011;9428;50.950;6.912;2023-07-24T14:38:37;1.35;;;1.20;;
18596;SDS011;9428;50.950;6.912;2023-07-24T14:41:24;1.73;;;1.20;;
18596;SDS011;9428;50.950;6.912;2023-07-24T14:44:12;1.90;;;1.05;;
18596;SDS011;9428;50.950;6.912;2023-07-24T14:46:59;1.23;;;1.10;;
18596;SDS011;9428;50.950;6.912;2023-07-24T14:49:46;3.00;;;1.40;;
18596;SDS011;9428;50.950;6.912;2023-07-24T14:52:35;1.40;;;1.30;;
18596;SDS011;9428;50.950;6.912;2023-07-24T14:55:23;2.40;;;1.40;;
18596;SDS011;9428;50.950;6.912;2023-07-24T14:58:10;2.53;;;1.27;;
18596;SDS011;9428;50.950;6.912;2023-07-24T15:00:57;1.70;;;1.20;;
18596;SDS011;9428;50.950;6.912;2023-07-24T15:03:44;1.85;;;1.30;;
18596;SDS011;9428;50.950;6.912;2023-07-24T15:06:32;2.72;;;1.52;;
18596;SDS011;9428;50.950;6.912;2023-07-24T15:09:20;2.67;;;1.60;;
18596;SDS011;9428;50.950;6.912;2023-07-24T15:12:07;2.00;;;1.40;;
18596;SDS011;9428;50.950;6.912;2023-07-24T15:14:55;2.70;;;1.67;;
18596;SDS011;9428;50.950;6.912;2023-07-24T15:17:42;3.10;;;1.58;;
18596;SDS011;9428;50.950;6.912;2023-07-24T15:20:29;3.35;;;1.85;;
18596;SDS011;9428;50.950;6.912;2023-07-24T15:23:16;2.78;;;1.83;;
18596;SDS011;9428;50.950;6.912;2023-07-24T15:26:05;1.50;;;1.30;;
18596;SDS011;9428;50.950;6.912;2023-07-24T15:28:52;3.53;;;1.45;;
18596;SDS011;9428;50.950;6.912;2023-07-24T15:31:39;8.55;;;1.85;;
18596;SDS011;9428;50.950;6.912;2023-07-24T15:34:27;2.88;;;1.35;;
18596;SDS011;9428;50.950;6.912;2023-07-24T15:37:14;1.42;;;1.30;;
18596;SDS011;9428;50.950;6.912;2023-07-24T15:40:01;2.33;;;1.48;;
18596;SDS011;9428;50.950;6.912;2023-07-24T15:42:50;1.50;;;1.33;;
18596;SDS011;9428;50.950;6.912;2023-07-24T15:45:38;2.30;;;1.40;;
18596;SDS011;9428;50.950;6.912;2023-07-24T15:48:25;1.67;;;1.30;;
18596;SDS011;9428;50.950;6.912;2023-07-24T15:51:12;1.55;;;1.35;;
18596;SDS011;9428;50.950;6.912;2023-07-24T15:53:59;1.38;;;1.17;;
18596;SDS011;9428;50.950;6.912;2023-07-24T15:56:49;1.88;;;1.38;;
18596;SDS011;9428;50.950;6.912;2023-07-24T15:59:38;2.00;;;1.45;;
18596;SDS011;9428;50.950;6.912;2023-07-24T16:02:25;1.83;;;1.35;;
18596;SDS011;9428;50.950;6.912;2023-07-24T16:05:16;1.77;;;1.40;;
18596;SDS011;9428;50.950;6.912;2023-07-24T16:08:04;4.20;;;1.02;;
18596;SDS011;9428;50.950;6.912;2023-07-24T16:10:51;1.48;;;1.17;;
18596;SDS011;9428;50.950;6.912;2023-07-24T16:13:39;3.08;;;1.40;;
18596;SDS011;9428;50.950;6.912;2023-07-24T16:16:29;2.05;;;1.45;;
18596;SDS011;9428;50.950;6.912;2023-07-24T16:19:16;3.47;;;1.35;;
18596;SDS011;9428;50.950;6.912;2023-07-24T16:22:05;4.40;;;1.70;;
18596;SDS011;9428;50.950;6.912;2023-07-24T16:24:52;3.35;;;1.75;;
18596;SDS011;9428;50.950;6.912;2023-07-24T16:27:40;6.97;;;1.85;;
18596;SDS011;9428;50.950;6.912;2023-07-24T16:30:27;2.15;;;1.83;;
18596;SDS011;9428;50.950;6.912;2023-07-24T16:33:15;3.40;;;1.85;;
18596;SDS011;9428;50.950;6.912;2023-07-24T16:36:03;3.75;;;2.22;;
18596;SDS011;9428;50.950;6.912;2023-07-24T16:38:50;2.30;;;1.75;;
18596;SDS011;9428;50.950;6.912;2023-07-24T16:41:37;6.20;;;2.35;;
18596;SDS011;9428;50.950;6.912;2023-07-24T16:44:25;1.90;;;1.70;;
18596;SDS011;9428;50.950;6.912;2023-07-24T16:47:12;2.70;;;1.85;;
18596;SDS011;9428;50.950;6.912;2023-07-24T16:50:00;2.15;;;1.90;;
18596;SDS011;9428;50.950;6.912;2023-07-24T16:52:48;4.85;;;1.77;;
18596;SDS011;9428;50.950;6.912;2023-07-24T16:55:35;2.15;;;1.77;;
18596;SDS011;9428;50.950;6.912;2023-07-24T16:58:22;2.67;;;2.00;;
18596;SDS011;9428;50.950;6.912;2023-07-24T17:01:10;4.10;;;2.50;;
18596;SDS011;9428;50.950;6.912;2023-07-24T17:03:57;2.90;;;2.20;;
18596;SDS011;9428;50.950;6.912;2023-07-24T17:06:46;4.60;;;2.58;;